createdAt,value
2022-12-19T00:00:05.682Z,95.60
2022-12-19T00:00:39.755Z,95.78
2022-12-19T00:01:21.895Z,96.93
2022-12-19T00:01:53.648Z,95.99
2022-12-19T00:02:25.640Z,94.43
2022-12-19T00:02:57.555Z,94.27
2022-12-19T00:03:29.421Z,94.92
2022-12-19T00:04:08.259Z,95.36
2022-12-19T00:04:40.487Z,95.50
2022-12-19T00:05:13.446Z,95.85
2022-12-19T00:05:45.061Z,96.62
2022-12-19T00:06:17.771Z,96.97
2022-12-19T00:06:49.336Z,97.08
2022-12-19T00:07:20.957Z,97.28
2022-12-19T00:07:53.680Z,97.48
2022-12-19T00:08:25.248Z,97.66
2022-12-19T00:09:00.298Z,96.85
2022-12-19T00:09:32.179Z,96.17
2022-12-19T00:10:06.997Z,96.39
2022-12-19T00:10:38.579Z,96.60
2022-12-19T00:11:11.399Z,95.69
2022-12-19T00:11:43.037Z,95.66
2022-12-19T00:12:19.053Z,95.54
2022-12-19T00:12:50.912Z,95.13
2022-12-19T00:13:22.827Z,95.05
2022-12-19T00:13:54.467Z,94.98
2022-12-19T00:14:26.045Z,94.02
2022-12-19T00:14:57.575Z,93.74
2022-12-19T00:15:33.734Z,93.77
2022-12-19T00:16:07.851Z,94.52
2022-12-19T00:16:39.506Z,96.05
2022-12-19T00:17:11.521Z,97.30
2022-12-19T00:17:43.067Z,96.89
2022-12-19T00:18:14.671Z,94.85
2022-12-19T00:18:47.235Z,94.71
2022-12-19T00:19:18.836Z,95.14
2022-12-19T00:19:50.368Z,96.54
2022-12-19T00:20:22.023Z,98.28
2022-12-19T00:21:02.319Z,98.11
2022-12-19T00:21:35.481Z,96.52
2022-12-19T00:22:11.123Z,95.04
2022-12-19T00:22:42.998Z,94.62
2022-12-19T00:23:14.627Z,94.59
2022-12-19T00:23:46.758Z,95.12
2022-12-19T00:24:20.636Z,95.77
2022-12-19T00:24:52.629Z,95.35
2022-12-19T00:25:24.196Z,95.13
2022-12-19T00:25:56.620Z,95.28
2022-12-19T00:26:30.704Z,94.77
2022-12-19T00:27:02.247Z,94.73
2022-12-19T00:27:35.381Z,95.14
2022-12-19T00:28:06.956Z,95.79
2022-12-19T00:28:39.390Z,95.98
2022-12-19T00:29:14.208Z,95.08
2022-12-19T00:29:46.178Z,94.79
2022-12-19T00:30:17.869Z,94.89
2022-12-19T00:30:49.469Z,95.25
2022-12-19T00:31:24.362Z,95.85
2022-12-19T00:31:56.015Z,96.57
2022-12-19T00:32:27.717Z,96.70
2022-12-19T00:32:59.299Z,96.90
2022-12-19T00:33:31.086Z,96.60
2022-12-19T00:34:04.679Z,96.23
2022-12-19T00:34:36.218Z,96.14
2022-12-19T00:35:08.049Z,95.89
2022-12-19T00:35:39.617Z,95.43
2022-12-19T00:36:13.870Z,96.31
2022-12-19T00:36:46.517Z,97.08
2022-12-19T00:37:18.084Z,97.47
2022-12-19T00:37:49.922Z,97.49
2022-12-19T00:38:22.397Z,97.71
2022-12-19T00:38:56.081Z,97.86
2022-12-19T00:39:27.685Z,96.55
2022-12-19T00:39:59.299Z,95.60
2022-12-19T00:40:30.845Z,95.74
2022-12-19T00:41:11.041Z,96.00
2022-12-19T00:41:42.745Z,95.77
2022-12-19T00:42:14.303Z,95.41
2022-12-19T00:42:50.239Z,95.71
2022-12-19T00:43:25.071Z,97.04
2022-12-19T00:44:02.481Z,99.06
2022-12-19T00:44:34.123Z,99.43
2022-12-19T00:45:06.110Z,99.14
2022-12-19T00:45:38.612Z,96.82
2022-12-19T00:46:13.804Z,96.53
2022-12-19T00:46:50.252Z,96.11
2022-12-19T00:47:27.440Z,95.47
2022-12-19T00:47:58.976Z,96.29
2022-12-19T00:48:31.609Z,96.73
2022-12-19T00:49:04.009Z,98.02
2022-12-19T00:49:35.590Z,99.48
2022-12-19T00:50:09.094Z,99.47
2022-12-19T00:50:40.666Z,99.24
2022-12-19T00:51:17.670Z,97.96
2022-12-19T00:51:49.537Z,97.14
2022-12-19T00:52:21.117Z,96.15
2022-12-19T00:52:53.990Z,95.92
2022-12-19T00:53:25.566Z,95.80
2022-12-19T00:53:58.181Z,96.18
2022-12-19T00:54:30.271Z,97.74
2022-12-19T00:55:02.222Z,98.14
2022-12-19T00:55:38.865Z,97.64
2022-12-19T00:56:13.238Z,95.41
2022-12-19T00:56:44.822Z,96.13
2022-12-19T00:57:16.403Z,95.92
2022-12-19T00:57:48.030Z,96.45
2022-12-19T00:58:19.622Z,97.67
2022-12-19T00:58:52.117Z,99.13
2022-12-19T00:59:26.460Z,99.41
2022-12-19T00:59:58.462Z,97.82
2022-12-19T01:00:30.042Z,96.48
2022-12-19T01:01:12.431Z,96.20
2022-12-19T01:01:44.346Z,96.29
2022-12-19T01:02:16.144Z,96.18
2022-12-19T01:02:47.885Z,94.99
2022-12-19T01:03:19.602Z,94.60
2022-12-19T01:04:26.478Z,95.91
2022-12-19T01:04:43.562Z,95.67
2022-12-19T01:05:15.243Z,95.57
2022-12-19T01:05:46.824Z,95.80
2022-12-19T01:06:19.225Z,96.15
2022-12-19T01:06:51.288Z,97.47
2022-12-19T01:07:23.131Z,98.99
2022-12-19T01:07:54.781Z,99.15
2022-12-19T01:08:26.381Z,98.84
2022-12-19T01:08:59.227Z,98.83
2022-12-19T01:09:31.245Z,97.17
2022-12-19T01:10:03.114Z,97.83
2022-12-19T01:10:34.719Z,98.48
2022-12-19T01:11:07.317Z,97.13
2022-12-19T01:11:57.379Z,96.15
2022-12-19T01:12:46.767Z,97.81
2022-12-19T01:13:20.601Z,97.96
2022-12-19T01:13:52.186Z,98.90
2022-12-19T01:14:23.994Z,98.93
2022-12-19T01:15:05.073Z,98.90
2022-12-19T01:15:39.773Z,98.35
2022-12-19T01:16:13.936Z,96.64
2022-12-19T01:16:45.590Z,97.23
2022-12-19T01:17:17.278Z,98.26
2022-12-19T01:17:49.510Z,98.35
2022-12-19T01:18:21.201Z,98.14
2022-12-19T01:18:52.736Z,98.03
2022-12-19T01:19:24.299Z,97.88
2022-12-19T01:19:55.843Z,97.15
2022-12-19T01:20:29.691Z,97.21
2022-12-19T01:21:04.179Z,97.44
2022-12-19T01:21:35.765Z,95.54
2022-12-19T01:22:07.381Z,95.46
2022-12-19T01:22:39.038Z,96.35
2022-12-19T01:23:10.940Z,95.33
2022-12-19T01:23:42.540Z,97.07
2022-12-19T01:24:16.319Z,98.40
2022-12-19T01:24:50.750Z,98.55
2022-12-19T01:25:22.373Z,96.33
2022-12-19T01:25:55.409Z,95.65
2022-12-19T01:26:27.044Z,95.63
2022-12-19T01:26:58.590Z,97.79
2022-12-19T01:27:31.678Z,98.52
2022-12-19T01:28:04.403Z,98.49
2022-12-19T01:28:36.115Z,98.46
2022-12-19T01:29:07.735Z,98.37
2022-12-19T01:29:51.727Z,98.20
2022-12-19T01:30:24.366Z,98.08
2022-12-19T01:30:56.197Z,96.61
2022-12-19T01:31:27.857Z,97.43
2022-12-19T01:32:00.270Z,97.92
2022-12-19T01:32:35.214Z,97.93
2022-12-19T01:33:08.776Z,97.90
2022-12-19T01:33:40.356Z,97.77
2022-12-19T01:34:14.111Z,97.69
2022-12-19T01:34:45.710Z,97.65
2022-12-19T01:35:21.169Z,97.80
2022-12-19T01:35:53.492Z,97.83
2022-12-19T01:36:25.230Z,97.74
2022-12-19T01:36:56.763Z,97.72
2022-12-19T01:37:28.319Z,97.90
2022-12-19T01:38:07.773Z,97.95
2022-12-19T01:38:40.261Z,98.08
2022-12-19T01:39:11.852Z,97.91
2022-12-19T01:39:43.417Z,97.75
2022-12-19T01:40:18.543Z,97.67
2022-12-19T01:40:52.123Z,97.62
2022-12-19T01:41:23.902Z,97.67
2022-12-19T01:41:55.454Z,97.70
2022-12-19T01:42:34.518Z,97.86
2022-12-19T01:43:06.788Z,98.01
2022-12-19T01:44:13.640Z,97.71
2022-12-19T01:45:05.348Z,97.70
2022-12-19T01:45:43.847Z,97.75
2022-12-19T01:46:17.677Z,97.80
2022-12-19T01:46:57.606Z,97.81
2022-12-19T01:47:30.304Z,97.72
2022-12-19T01:48:28.388Z,97.58
2022-12-19T01:49:01.845Z,97.71
2022-12-19T01:49:36.138Z,97.82
2022-12-19T01:50:14.316Z,97.76
2022-12-19T01:51:01.097Z,97.61
2022-12-19T01:52:01.189Z,97.78
2022-12-19T01:52:33.130Z,97.73
2022-12-19T01:53:07.072Z,97.79
2022-12-19T01:53:48.931Z,97.80
2022-12-19T01:54:25.554Z,97.59
2022-12-19T01:54:57.346Z,97.38
2022-12-19T01:55:30.976Z,97.15
2022-12-19T01:56:09.650Z,97.15
2022-12-19T01:56:46.109Z,97.25
2022-12-19T01:57:19.625Z,97.44
2022-12-19T01:57:51.848Z,97.40
2022-12-19T01:58:24.050Z,97.47
2022-12-19T01:59:06.550Z,97.39
2022-12-19T01:59:43.806Z,97.62
2022-12-19T02:01:11.086Z,97.71
2022-12-19T02:01:51.582Z,97.43
2022-12-19T02:02:29.836Z,97.38
2022-12-19T02:03:12.759Z,97.28
2022-12-19T02:03:45.769Z,97.41
2022-12-19T02:04:17.795Z,97.35
2022-12-19T02:04:49.360Z,97.55
2022-12-19T02:05:21.091Z,97.50
2022-12-19T02:05:53.688Z,97.55
2022-12-19T02:06:27.208Z,97.75
2022-12-19T02:06:59.993Z,97.74
2022-12-19T02:07:38.770Z,98.02
2022-12-19T02:08:10.996Z,98.09
2022-12-19T02:08:46.175Z,98.13
2022-12-19T02:09:17.813Z,98.19
2022-12-19T02:09:56.881Z,98.23
2022-12-19T02:10:29.214Z,98.08
2022-12-19T02:11:00.777Z,98.23
2022-12-19T02:11:32.431Z,98.33
2022-12-19T02:12:04.624Z,98.50
2022-12-19T02:12:39.924Z,98.39
2022-12-19T02:13:12.293Z,98.43
2022-12-19T02:13:44.291Z,98.47
2022-12-19T02:14:18.877Z,98.54
2022-12-19T02:14:51.514Z,98.49
2022-12-19T02:15:32.984Z,98.41
2022-12-19T02:16:40.619Z,98.28
2022-12-19T02:17:23.622Z,98.06
2022-12-19T02:18:19.619Z,98.24
2022-12-19T02:19:25.112Z,98.37
2022-12-19T02:20:07.380Z,98.38
2022-12-19T02:20:39.009Z,98.70
2022-12-19T02:21:34.134Z,98.71
2022-12-19T02:22:23.224Z,98.41
2022-12-19T02:23:00.706Z,98.33
2022-12-19T02:23:53.172Z,98.30
2022-12-19T02:25:02.246Z,98.71
2022-12-19T02:25:45.639Z,98.88
2022-12-19T02:26:52.038Z,98.80
2022-12-19T02:27:39.985Z,98.65
2022-12-19T02:28:17.114Z,98.67
2022-12-19T02:29:45.787Z,98.89
2022-12-19T02:30:36.832Z,98.60
2022-12-19T02:31:19.608Z,98.61
2022-12-19T02:31:58.778Z,98.53
2022-12-19T02:32:48.310Z,98.51
2022-12-19T02:33:26.439Z,98.53
2022-12-19T02:34:03.567Z,98.42
2022-12-19T02:34:49.722Z,98.67
2022-12-19T02:35:41.112Z,98.84
2022-12-19T02:36:17.726Z,98.77
2022-12-19T02:37:00.789Z,98.58
2022-12-19T02:37:37.918Z,98.84
2022-12-19T02:38:27.982Z,98.88
2022-12-19T02:39:10.628Z,98.46
2022-12-19T02:40:08.223Z,98.26
2022-12-19T02:40:55.913Z,98.32
2022-12-19T02:41:43.296Z,98.40
2022-12-19T02:42:25.872Z,98.47
2022-12-19T02:43:03.019Z,98.44
2022-12-19T02:43:44.453Z,98.54
2022-12-19T02:44:23.940Z,98.52
2022-12-19T02:44:56.798Z,98.38
2022-12-19T02:45:33.957Z,98.38
2022-12-19T02:46:06.920Z,98.36
2022-12-19T02:46:38.712Z,98.51
2022-12-19T02:47:12.144Z,98.46
2022-12-19T02:47:45.039Z,98.44
2022-12-19T02:48:19.417Z,98.54
2022-12-19T02:48:51.732Z,98.46
2022-12-19T02:49:30.364Z,98.25
2022-12-19T02:50:04.504Z,98.62
2022-12-19T02:50:48.444Z,98.72
2022-12-19T02:51:21.890Z,98.72
2022-12-19T02:51:53.665Z,98.58
2022-12-19T02:52:25.198Z,98.45
2022-12-19T02:52:56.745Z,98.62
2022-12-19T02:53:28.352Z,98.65
2022-12-19T02:53:59.964Z,98.87
2022-12-19T02:54:31.529Z,99.01
2022-12-19T02:55:13.907Z,98.79
2022-12-19T02:55:54.301Z,98.80
2022-12-19T02:56:49.024Z,98.77
2022-12-19T02:57:45.911Z,98.65
2022-12-19T02:58:34.420Z,98.55
2022-12-19T02:59:21.152Z,98.62
2022-12-19T03:00:03.170Z,98.43
2022-12-19T03:01:13.752Z,98.39
2022-12-19T03:01:52.710Z,98.66
2022-12-19T03:02:40.595Z,98.75
2022-12-19T03:03:28.075Z,98.74
2022-12-19T03:04:35.171Z,98.61
2022-12-19T03:05:30.549Z,98.93
2022-12-19T03:06:20.660Z,98.89
2022-12-19T03:07:15.161Z,98.83
2022-12-19T03:08:02.075Z,98.68
2022-12-19T03:09:01.478Z,98.45
2022-12-19T03:09:59.987Z,98.75
2022-12-19T03:10:55.325Z,98.89
2022-12-19T03:11:32.565Z,98.76
2022-12-19T03:12:12.828Z,98.58
2022-12-19T03:13:01.245Z,98.65
2022-12-19T03:13:40.234Z,98.59
2022-12-19T03:14:16.343Z,98.48
2022-12-19T03:14:49.385Z,98.39
2022-12-19T03:15:21.675Z,98.20
2022-12-19T03:15:53.794Z,98.27
2022-12-19T03:16:25.948Z,98.13
2022-12-19T03:17:03.074Z,97.87
2022-12-19T03:17:36.934Z,97.68
2022-12-19T03:18:09.205Z,97.65
2022-12-19T03:18:41.169Z,97.65
2022-12-19T03:19:14.745Z,97.70
2022-12-19T03:19:46.455Z,97.86
2022-12-19T03:20:52.159Z,98.16
2022-12-19T03:21:29.265Z,98.53
2022-12-19T03:22:01.400Z,98.78
2022-12-19T03:22:33.072Z,98.61
2022-12-19T03:23:04.676Z,98.51
2022-12-19T03:23:40.449Z,98.40
2022-12-19T03:24:13.824Z,98.12
2022-12-19T03:24:45.434Z,98.11
2022-12-19T03:25:18.010Z,97.91
2022-12-19T03:25:54.631Z,97.95
2022-12-19T03:26:30.585Z,98.01
2022-12-19T03:27:38.214Z,97.94
2022-12-19T03:28:16.320Z,98.01
2022-12-19T03:28:56.800Z,97.84
2022-12-19T03:29:38.635Z,97.78
2022-12-19T03:30:12.973Z,97.68
2022-12-19T03:30:46.519Z,97.75
2022-12-19T03:31:23.489Z,97.67
2022-12-19T03:31:57.170Z,97.62
2022-12-19T03:32:31.107Z,97.50
2022-12-19T03:33:03.782Z,97.50
2022-12-19T03:33:38.303Z,97.50
2022-12-19T03:34:27.185Z,97.78
2022-12-19T03:35:08.472Z,98.00
2022-12-19T03:35:41.633Z,97.84
2022-12-19T03:36:20.023Z,97.85
2022-12-19T03:36:57.912Z,98.06
2022-12-19T03:37:33.675Z,97.88
2022-12-19T03:38:06.986Z,97.86
2022-12-19T03:38:40.677Z,97.68
2022-12-19T03:39:14.554Z,97.76
2022-12-19T03:39:51.041Z,97.74
2022-12-19T03:40:25.647Z,97.65
2022-12-19T03:40:59.629Z,97.74
2022-12-19T03:41:50.701Z,97.80
2022-12-19T03:42:44.533Z,97.97
2022-12-19T03:43:17.529Z,97.92
2022-12-19T03:43:49.321Z,97.60
2022-12-19T03:44:24.079Z,97.52
2022-12-19T03:44:57.661Z,97.69
2022-12-19T03:45:41.343Z,97.79
2022-12-19T03:46:23.136Z,97.93
2022-12-19T03:47:00.830Z,97.93
2022-12-19T03:47:39.474Z,98.10
2022-12-19T03:48:16.276Z,98.18
2022-12-19T03:48:50.474Z,98.06
2022-12-19T03:49:22.114Z,97.97
2022-12-19T03:49:53.835Z,98.09
2022-12-19T03:50:31.860Z,97.98
2022-12-19T03:51:17.975Z,97.89
2022-12-19T03:51:49.509Z,97.81
2022-12-19T03:52:35.984Z,97.92
2022-12-19T03:53:49.134Z,98.01
2022-12-19T03:54:27.602Z,97.74
2022-12-19T03:55:21.299Z,97.74
2022-12-19T03:56:11.870Z,97.75
2022-12-19T03:56:48.872Z,97.58
2022-12-19T03:57:30.731Z,97.50
2022-12-19T03:58:07.956Z,97.54
2022-12-19T03:58:45.590Z,97.65
2022-12-19T03:59:32.038Z,97.56
2022-12-19T04:00:09.099Z,97.51
2022-12-19T04:00:43.672Z,97.49
2022-12-19T04:01:15.936Z,97.51
2022-12-19T04:01:48.316Z,97.51
2022-12-19T04:02:22.013Z,97.65
2022-12-19T04:02:56.989Z,97.56
2022-12-19T04:03:30.548Z,97.48
2022-12-19T04:04:03.452Z,97.43
2022-12-19T04:04:42.501Z,97.48
2022-12-19T04:05:25.046Z,97.62
2022-12-19T04:05:58.415Z,97.67
2022-12-19T04:06:32.923Z,97.61
2022-12-19T04:07:06.840Z,97.52
2022-12-19T04:07:39.980Z,97.53
2022-12-19T04:08:12.271Z,97.58
2022-12-19T04:08:44.536Z,97.81
2022-12-19T04:09:22.432Z,97.86
2022-12-19T04:09:57.800Z,97.72
2022-12-19T04:10:30.251Z,97.79
2022-12-19T04:11:07.837Z,97.69
2022-12-19T04:11:43.730Z,97.73
2022-12-19T04:12:27.292Z,97.72
2022-12-19T04:13:11.986Z,97.66
2022-12-19T04:13:50.328Z,97.75
2022-12-19T04:14:31.242Z,97.75
2022-12-19T04:15:04.377Z,97.81
2022-12-19T04:16:11.987Z,97.87
2022-12-19T04:16:51.087Z,97.61
2022-12-19T04:17:50.752Z,97.56
2022-12-19T04:18:23.215Z,97.41
2022-12-19T04:19:04.919Z,97.33
2022-12-19T04:19:47.983Z,97.30
2022-12-19T04:20:22.230Z,97.38
2022-12-19T04:21:07.231Z,97.06
2022-12-19T04:21:46.928Z,97.30
2022-12-19T04:22:24.606Z,97.22
2022-12-19T04:23:11.808Z,97.26
2022-12-19T04:23:56.227Z,97.21
2022-12-19T04:24:31.222Z,97.40
2022-12-19T04:25:05.256Z,97.59
2022-12-19T04:25:45.207Z,97.53
2022-12-19T04:26:18.893Z,97.62
2022-12-19T04:26:53.258Z,97.64
2022-12-19T04:27:29.724Z,97.82
2022-12-19T04:28:10.357Z,97.64
2022-12-19T04:28:48.307Z,97.64
2022-12-19T04:29:20.485Z,97.78
2022-12-19T04:29:55.994Z,97.89
2022-12-19T04:30:27.559Z,98.04
2022-12-19T04:30:59.887Z,97.92
2022-12-19T04:31:31.682Z,97.87
2022-12-19T04:32:05.920Z,97.79
2022-12-19T04:32:38.217Z,97.89
2022-12-19T04:33:09.769Z,97.72
2022-12-19T04:33:41.858Z,97.62
2022-12-19T04:34:17.714Z,97.50
2022-12-19T04:34:49.336Z,97.36
2022-12-19T04:35:21.097Z,97.35
2022-12-19T04:35:52.715Z,97.50
2022-12-19T04:36:25.819Z,97.79
2022-12-19T04:36:57.728Z,97.81
2022-12-19T04:37:29.645Z,97.78
2022-12-19T04:38:01.283Z,97.75
2022-12-19T04:38:32.980Z,97.87
2022-12-19T04:39:04.630Z,97.76
2022-12-19T04:39:36.197Z,97.70
2022-12-19T04:40:09.067Z,97.63
2022-12-19T04:40:41.660Z,97.79
2022-12-19T04:41:13.952Z,97.79
2022-12-19T04:41:45.491Z,97.65
2022-12-19T04:42:17.085Z,97.62
2022-12-19T04:42:48.687Z,97.71
2022-12-19T04:43:20.278Z,97.70
2022-12-19T04:43:51.873Z,97.85
2022-12-19T04:44:23.441Z,97.90
2022-12-19T04:44:55.065Z,97.97
2022-12-19T04:45:26.764Z,98.12
2022-12-19T04:45:58.345Z,98.30
2022-12-19T04:46:29.922Z,98.18
2022-12-19T04:47:01.495Z,98.05
2022-12-19T04:47:33.086Z,97.90
2022-12-19T04:48:04.871Z,97.87
2022-12-19T04:48:39.220Z,97.71
2022-12-19T04:49:10.785Z,97.65
2022-12-19T04:49:42.331Z,97.76
2022-12-19T04:50:14.062Z,97.81
2022-12-19T04:50:45.621Z,98.01
2022-12-19T04:51:17.184Z,97.82
2022-12-19T04:51:49.040Z,97.62
2022-12-19T04:52:20.619Z,97.75
2022-12-19T04:52:56.907Z,97.57
2022-12-19T04:53:28.975Z,97.53
2022-12-19T04:54:00.565Z,97.52
2022-12-19T04:54:32.818Z,97.70
2022-12-19T04:55:04.697Z,97.80
2022-12-19T04:55:36.675Z,97.95
2022-12-19T04:56:09.868Z,97.98
2022-12-19T04:56:41.469Z,97.96
2022-12-19T04:57:13.129Z,97.84
2022-12-19T04:57:44.704Z,97.84
2022-12-19T04:58:21.494Z,97.69
2022-12-19T04:58:58.131Z,97.82
2022-12-19T04:59:29.849Z,97.79
2022-12-19T05:00:03.944Z,97.70
2022-12-19T05:00:35.639Z,97.60
2022-12-19T05:01:09.059Z,97.79
2022-12-19T05:01:40.824Z,97.61
2022-12-19T05:02:12.714Z,97.65
2022-12-19T05:02:44.669Z,97.83
2022-12-19T05:03:16.476Z,97.74
2022-12-19T05:03:54.074Z,97.83
2022-12-19T05:04:26.800Z,97.88
2022-12-19T05:04:58.864Z,97.94
2022-12-19T05:05:30.459Z,98.01
2022-12-19T05:06:14.537Z,97.85
2022-12-19T05:06:46.128Z,97.84
2022-12-19T05:07:17.746Z,97.82
2022-12-19T05:07:49.308Z,97.82
2022-12-19T05:08:20.915Z,97.99
2022-12-19T05:08:52.500Z,97.76
2022-12-19T05:09:24.057Z,97.69
2022-12-19T05:09:56.195Z,97.75
2022-12-19T05:10:27.777Z,97.53
2022-12-19T05:11:03.541Z,97.51
2022-12-19T05:11:35.079Z,97.38
2022-12-19T05:12:07.045Z,97.40
2022-12-19T05:12:38.654Z,97.46
2022-12-19T05:13:10.296Z,97.50
2022-12-19T05:13:42.057Z,97.39
2022-12-19T05:14:13.668Z,97.52
2022-12-19T05:14:45.693Z,97.44
2022-12-19T05:15:17.494Z,97.34
2022-12-19T05:15:56.864Z,97.52
2022-12-19T05:16:28.577Z,97.66
2022-12-19T05:17:01.440Z,97.55
2022-12-19T05:17:33.387Z,97.61
2022-12-19T05:18:05.329Z,97.66
2022-12-19T05:18:38.075Z,97.63
2022-12-19T05:19:09.704Z,97.70
2022-12-19T05:19:41.998Z,97.69
2022-12-19T05:20:13.731Z,97.65
2022-12-19T05:20:48.807Z,97.52
2022-12-19T05:21:21.396Z,97.61
2022-12-19T05:21:53.013Z,97.59
2022-12-19T05:22:24.600Z,97.82
2022-12-19T05:22:56.231Z,97.89
2022-12-19T05:23:28.299Z,97.77
2022-12-19T05:23:59.914Z,97.71
2022-12-19T05:24:31.537Z,97.78
2022-12-19T05:25:04.095Z,97.61
2022-12-19T05:25:35.872Z,97.60
2022-12-19T05:26:07.663Z,97.70
2022-12-19T05:26:39.286Z,97.78
2022-12-19T05:27:10.904Z,97.85
2022-12-19T05:27:42.517Z,97.75
2022-12-19T05:28:14.658Z,97.70
2022-12-19T05:28:46.935Z,97.73
2022-12-19T05:29:18.576Z,97.81
2022-12-19T05:29:50.229Z,97.81
2022-12-19T05:30:23.412Z,97.84
2022-12-19T05:31:16.783Z,98.06
2022-12-19T05:31:48.484Z,98.12
2022-12-19T05:32:20.128Z,98.21
2022-12-19T05:32:51.903Z,98.09
2022-12-19T05:33:23.509Z,98.01
2022-12-19T05:33:55.173Z,97.98
2022-12-19T05:34:26.788Z,98.09
2022-12-19T05:34:58.594Z,97.95
2022-12-19T05:35:30.274Z,97.98
2022-12-19T05:36:02.135Z,98.21
2022-12-19T05:36:33.789Z,98.13
2022-12-19T05:37:05.395Z,97.97
2022-12-19T05:37:36.978Z,97.99
2022-12-19T05:38:08.563Z,98.19
2022-12-19T05:38:41.022Z,97.83
2022-12-19T05:39:12.603Z,97.83
2022-12-19T05:39:44.189Z,97.71
2022-12-19T05:40:15.817Z,97.93
2022-12-19T05:40:47.403Z,97.68
2022-12-19T05:41:21.272Z,97.50
2022-12-19T05:41:52.888Z,97.58
2022-12-19T05:42:26.186Z,97.46
2022-12-19T05:42:57.837Z,97.32
2022-12-19T05:43:29.385Z,97.30
2022-12-19T05:44:01.027Z,97.35
2022-12-19T05:44:32.624Z,97.44
2022-12-19T05:45:04.498Z,97.59
2022-12-19T05:45:36.116Z,97.60
2022-12-19T05:46:07.915Z,97.73
2022-12-19T05:46:39.578Z,97.85
2022-12-19T05:47:11.161Z,97.86
2022-12-19T05:47:46.582Z,97.90
2022-12-19T05:48:18.191Z,97.94
2022-12-19T05:48:50.221Z,97.95
2022-12-19T05:49:22.162Z,97.75
2022-12-19T05:49:53.983Z,97.79
2022-12-19T05:50:25.592Z,97.58
2022-12-19T05:50:57.159Z,97.62
2022-12-19T05:51:28.740Z,97.76
2022-12-19T05:52:00.349Z,97.79
2022-12-19T05:52:32.179Z,97.90
2022-12-19T05:53:03.761Z,97.92
2022-12-19T05:53:36.688Z,97.78
2022-12-19T05:54:08.273Z,97.68
2022-12-19T05:54:39.828Z,97.62
2022-12-19T05:55:11.514Z,97.54
2022-12-19T05:55:43.482Z,97.65
2022-12-19T05:56:18.530Z,97.59
2022-12-19T05:56:50.089Z,97.55
2022-12-19T05:57:21.675Z,97.69
2022-12-19T05:57:53.357Z,97.78
2022-12-19T05:58:24.905Z,97.88
2022-12-19T05:58:57.385Z,97.91
2022-12-19T05:59:28.941Z,98.10
2022-12-19T06:00:00.914Z,98.12
2022-12-19T06:00:32.501Z,98.07
2022-12-19T06:01:09.869Z,98.07
2022-12-19T06:01:42.480Z,97.97
2022-12-19T06:02:14.255Z,97.78
2022-12-19T06:02:46.023Z,97.74
2022-12-19T06:03:17.757Z,97.88
2022-12-19T06:03:49.948Z,97.83
2022-12-19T06:04:21.568Z,97.85
2022-12-19T06:04:53.222Z,97.85
2022-12-19T06:05:24.816Z,97.85
2022-12-19T06:05:56.827Z,97.83
2022-12-19T06:06:28.503Z,97.85
2022-12-19T06:07:00.083Z,97.89
2022-12-19T06:07:32.142Z,98.14
2022-12-19T06:08:03.777Z,97.96
2022-12-19T06:08:35.506Z,98.11
2022-12-19T06:09:07.114Z,98.11
2022-12-19T06:09:38.681Z,98.03
2022-12-19T06:10:10.384Z,98.07
2022-12-19T06:10:41.945Z,97.93
2022-12-19T06:11:14.780Z,97.88
2022-12-19T06:11:46.356Z,98.00
2022-12-19T06:12:17.911Z,97.92
2022-12-19T06:12:49.492Z,97.96
2022-12-19T06:13:25.014Z,97.99
2022-12-19T06:13:56.850Z,97.92
2022-12-19T06:14:28.445Z,97.99
2022-12-19T06:15:00.042Z,98.13
2022-12-19T06:15:31.629Z,97.98
2022-12-19T06:16:09.978Z,97.99
2022-12-19T06:16:41.582Z,97.87
2022-12-19T06:17:13.338Z,97.99
2022-12-19T06:17:44.883Z,97.99
2022-12-19T06:18:16.489Z,98.23
2022-12-19T06:18:48.336Z,98.31
2022-12-19T06:19:19.942Z,98.35
2022-12-19T06:19:52.574Z,98.40
2022-12-19T06:20:24.188Z,98.40
2022-12-19T06:21:16.978Z,98.41
2022-12-19T06:21:48.767Z,98.12
2022-12-19T06:22:20.389Z,98.19
2022-12-19T06:22:51.932Z,98.00
2022-12-19T06:23:23.552Z,98.10
2022-12-19T06:23:55.467Z,97.92
2022-12-19T06:24:27.228Z,97.79
2022-12-19T06:24:58.807Z,97.85
2022-12-19T06:25:30.356Z,97.68
2022-12-19T06:26:04.599Z,97.89
2022-12-19T06:26:36.226Z,97.86
2022-12-19T06:27:07.813Z,97.82
2022-12-19T06:27:39.369Z,97.83
2022-12-19T06:28:10.964Z,97.77
2022-12-19T06:28:42.563Z,97.85
2022-12-19T06:29:14.177Z,97.85
2022-12-19T06:29:45.739Z,98.06
2022-12-19T06:30:17.394Z,97.97
2022-12-19T06:30:49.006Z,98.10
2022-12-19T06:31:22.841Z,98.15
2022-12-19T06:31:54.524Z,98.38
2022-12-19T06:32:26.130Z,98.38
2022-12-19T06:32:57.707Z,98.37
2022-12-19T06:33:30.697Z,98.41
2022-12-19T06:34:02.609Z,98.50
2022-12-19T06:35:02.845Z,98.55
2022-12-19T06:35:25.803Z,98.30
2022-12-19T06:36:06.062Z,98.28
2022-12-19T06:36:37.928Z,98.34
2022-12-19T06:37:09.498Z,98.48
2022-12-19T06:37:41.088Z,98.33
2022-12-19T06:38:12.724Z,98.24
2022-12-19T06:38:44.472Z,98.35
2022-12-19T06:39:16.796Z,98.35
2022-12-19T06:39:50.493Z,98.31
2022-12-19T06:40:40.299Z,98.42
2022-12-19T06:41:30.549Z,98.45
2022-12-19T06:42:20.463Z,98.53
2022-12-19T06:42:52.036Z,98.55
2022-12-19T06:43:26.173Z,98.53
2022-12-19T06:43:59.163Z,98.56
2022-12-19T06:44:32.077Z,98.42
2022-12-19T06:45:03.955Z,98.52
2022-12-19T06:45:35.567Z,98.72
2022-12-19T06:46:07.850Z,98.78
2022-12-19T06:46:40.327Z,98.68
2022-12-19T06:47:12.208Z,98.82
2022-12-19T06:47:43.751Z,98.91
2022-12-19T06:48:15.328Z,98.97
2022-12-19T06:48:46.881Z,99.00
2022-12-19T06:49:18.603Z,98.95
2022-12-19T06:49:50.364Z,98.98
2022-12-19T06:50:21.947Z,98.82
2022-12-19T06:50:53.579Z,98.58
2022-12-19T06:51:25.363Z,98.51
2022-12-19T06:51:56.962Z,98.63
2022-12-19T06:52:28.532Z,98.66
2022-12-19T06:53:00.379Z,98.79
2022-12-19T06:53:33.104Z,98.76
2022-12-19T06:54:04.971Z,98.85
2022-12-19T06:54:36.613Z,99.04
2022-12-19T06:55:08.648Z,98.91
2022-12-19T06:55:40.562Z,98.87
2022-12-19T06:56:14.612Z,98.95
2022-12-19T06:56:46.422Z,99.12
2022-12-19T06:57:18.004Z,99.09
2022-12-19T06:57:49.577Z,98.89
2022-12-19T06:58:24.381Z,99.01
2022-12-19T06:58:56.454Z,98.88
2022-12-19T06:59:28.044Z,98.85
2022-12-19T06:59:59.597Z,99.02
2022-12-19T07:00:31.235Z,99.01
2022-12-19T07:01:03.234Z,99.09
2022-12-19T07:01:43.971Z,98.82
2022-12-19T07:02:27.418Z,98.89
2022-12-19T07:03:00.123Z,98.91
2022-12-19T07:03:41.515Z,98.96
2022-12-19T07:04:16.471Z,98.98
2022-12-19T07:04:52.656Z,98.93
2022-12-19T07:05:24.534Z,98.88
2022-12-19T07:05:56.530Z,98.77
2022-12-19T07:06:28.424Z,98.79
2022-12-19T07:07:00.692Z,98.78
2022-12-19T07:07:32.777Z,98.76
2022-12-19T07:08:04.778Z,99.05
2022-12-19T07:08:36.385Z,98.96
2022-12-19T07:09:07.982Z,98.96
2022-12-19T07:09:40.228Z,99.00
2022-12-19T07:10:11.859Z,98.95
2022-12-19T07:10:43.531Z,98.95
2022-12-19T07:11:15.129Z,98.90
2022-12-19T07:11:46.765Z,98.87
2022-12-19T07:12:18.499Z,98.77
2022-12-19T07:12:50.093Z,98.89
2022-12-19T07:13:21.859Z,98.93
2022-12-19T07:13:53.439Z,98.88
2022-12-19T07:14:25.070Z,98.92
2022-12-19T07:14:56.679Z,99.00
2022-12-19T07:15:30.934Z,99.04
2022-12-19T07:16:05.228Z,99.07
2022-12-19T07:16:37.141Z,99.12
2022-12-19T07:17:08.797Z,99.02
2022-12-19T07:17:40.571Z,99.09
2022-12-19T07:18:12.586Z,99.16
2022-12-19T07:18:44.646Z,99.24
2022-12-19T07:19:16.766Z,99.31
2022-12-19T07:19:50.005Z,99.23
2022-12-19T07:20:22.129Z,99.33
2022-12-19T07:20:53.740Z,99.55
2022-12-19T07:21:25.526Z,99.50
2022-12-19T07:21:57.919Z,99.36
2022-12-19T07:22:33.354Z,99.32
2022-12-19T07:23:07.536Z,99.46
2022-12-19T07:23:39.726Z,99.34
2022-12-19T07:24:15.006Z,99.41
2022-12-19T07:24:46.753Z,99.36
2022-12-19T07:25:18.477Z,99.37
2022-12-19T07:25:50.316Z,99.34
2022-12-19T07:26:22.702Z,99.25
2022-12-19T07:26:54.317Z,99.27
2022-12-19T07:27:35.197Z,99.28
2022-12-19T07:28:08.346Z,99.37
2022-12-19T07:28:40.254Z,99.40
2022-12-19T07:29:12.439Z,99.38
2022-12-19T07:29:44.146Z,99.50
2022-12-19T07:30:15.744Z,99.28
2022-12-19T07:30:47.405Z,99.09
2022-12-19T07:31:19.094Z,99.13
2022-12-19T07:31:50.798Z,99.26
2022-12-19T07:32:22.488Z,99.25
2022-12-19T07:32:54.382Z,99.05
2022-12-19T07:33:26.076Z,99.04
2022-12-19T07:33:58.103Z,99.13